sensor_id;sensor_type;location;lat;lon;timestamp;P1;durP1;ratioP1;P2;durP2;ratioP2
2386;SDS011;49473;50.772;8.768;2022-12-18T00:02:05;30.33;;;14.50;;
2386;SDS011;49473;50.772;8.768;2022-12-18T00:04:31;23.23;;;14.43;;
2386;SDS011;49473;50.772;8.768;2022-12-18T00:06:59;29.27;;;13.93;;
2386;SDS011;49473;50.772;8.768;2022-12-18T00:09:26;28.23;;;14.20;;
2386;SDS011;49473;50.772;8.768;2022-12-18T00:11:53;23.70;;;14.57;;
2386;SDS011;49473;50.772;8.768;2022-12-18T00:14:20;27.13;;;15.00;;
2386;SDS011;49473;50.772;8.768;2022-12-18T00:16:47;26.70;;;14.90;;
2386;SDS011;49473;50.772;8.768;2022-12-18T00:19:14;25.80;;;15.27;;
2386;SDS011;49473;50.772;8.768;2022-12-18T00:21:42;25.53;;;14.03;;
2386;SDS011;49473;50.772;8.768;2022-12-18T00:24:11;22.87;;;13.80;;
2386;SDS011;49473;50.772;8.768;2022-12-18T00:26:38;27.13;;;13.50;;
2386;SDS011;49473;50.772;8.768;2022-12-18T00:29:06;22.37;;;13.70;;
2386;SDS011;49473;50.772;8.768;2022-12-18T00:31:36;26.00;;;15.23;;
2386;SDS011;49473;50.772;8.768;2022-12-18T00:34:04;23.90;;;16.00;;
2386;SDS011;49473;50.772;8.768;2022-12-18T00:36:31;24.77;;;14.73;;
2386;SDS011;49473;50.772;8.768;2022-12-18T00:39:00;20.67;;;15.07;;
2386;SDS011;49473;50.772;8.768;2022-12-18T00:41:31;26.43;;;14.40;;
2386;SDS011;49473;50.772;8.768;2022-12-18T00:44:16;28.33;;;15.37;;
2386;SDS011;49473;50.772;8.768;2022-12-18T00:46:44;29.10;;;14.70;;
2386;SDS011;49473;50.772;8.768;2022-12-18T00:49:12;25.10;;;14.87;;
2386;SDS011;49473;50.772;8.768;2022-12-18T00:51:39;23.60;;;14.53;;
2386;SDS011;49473;50.772;8.768;2022-12-18T00:54:05;30.23;;;15.30;;
2386;SDS011;49473;50.772;8.768;2022-12-18T00:56:34;21.97;;;14.03;;
2386;SDS011;49473;50.772;8.768;2022-12-18T00:59:02;22.80;;;13.50;;
2386;SDS011;49473;50.772;8.768;2022-12-18T01:01:28;22.47;;;12.93;;
2386;SDS011;49473;50.772;8.768;2022-12-18T01:03:55;21.40;;;11.13;;
2386;SDS011;49473;50.772;8.768;2022-12-18T01:06:22;17.63;;;11.50;;
2386;SDS011;49473;50.772;8.768;2022-12-18T01:08:49;19.57;;;11.60;;
2386;SDS011;49473;50.772;8.768;2022-12-18T01:11:17;19.30;;;11.70;;
2386;SDS011;49473;50.772;8.768;2022-12-18T01:13:46;18.70;;;11.10;;
2386;SDS011;49473;50.772;8.768;2022-12-18T01:16:13;18.60;;;11.83;;
2386;SDS011;49473;50.772;8.768;2022-12-18T01:18:42;20.60;;;11.93;;
2386;SDS011;49473;50.772;8.768;2022-12-18T01:21:09;19.63;;;10.27;;
2386;SDS011;49473;50.772;8.768;2022-12-18T01:23:37;21.80;;;11.50;;
2386;SDS011;49473;50.772;8.768;2022-12-18T01:26:05;20.07;;;10.70;;
2386;SDS011;49473;50.772;8.768;2022-12-18T01:28:32;19.80;;;11.53;;
2386;SDS011;49473;50.772;8.768;2022-12-18T01:31:10;16.50;;;10.60;;
2386;SDS011;49473;50.772;8.768;2022-12-18T01:33:37;16.73;;;10.07;;
2386;SDS011;49473;50.772;8.768;2022-12-18T01:36:04;17.23;;;10.20;;
2386;SDS011;49473;50.772;8.768;2022-12-18T01:38:31;19.00;;;10.83;;
2386;SDS011;49473;50.772;8.768;2022-12-18T01:40:58;17.47;;;11.10;;
2386;SDS011;49473;50.772;8.768;2022-12-18T01:43:40;25.17;;;13.70;;
2386;SDS011;49473;50.772;8.768;2022-12-18T01:46:08;20.43;;;11.20;;
2386;SDS011;49473;50.772;8.768;2022-12-18T01:48:36;15.70;;;10.40;;
2386;SDS011;49473;50.772;8.768;2022-12-18T01:51:04;18.10;;;10.40;;
2386;SDS011;49473;50.772;8.768;2022-12-18T01:53:33;19.40;;;10.50;;
2386;SDS011;49473;50.772;8.768;2022-12-18T01:56:01;21.27;;;12.20;;
2386;SDS011;49473;50.772;8.768;2022-12-18T01:58:30;19.83;;;12.50;;
2386;SDS011;49473;50.772;8.768;2022-12-18T02:01:05;20.27;;;11.97;;
2386;SDS011;49473;50.772;8.768;2022-12-18T02:03:33;17.70;;;11.30;;
2386;SDS011;49473;50.772;8.768;2022-12-18T02:06:01;19.73;;;11.67;;
2386;SDS011;49473;50.772;8.768;2022-12-18T02:08:36;18.00;;;11.13;;
2386;SDS011;49473;50.772;8.768;2022-12-18T02:11:13;23.10;;;12.07;;
2386;SDS011;49473;50.772;8.768;2022-12-18T02:13:46;24.43;;;13.30;;
2386;SDS011;49473;50.772;8.768;2022-12-18T02:16:19;16.13;;;11.37;;
2386;SDS011;49473;50.772;8.768;2022-12-18T02:18:53;20.60;;;12.00;;
2386;SDS011;49473;50.772;8.768;2022-12-18T02:21:26;19.00;;;11.97;;
2386;SDS011;49473;50.772;8.768;2022-12-18T02:24:01;21.67;;;11.70;;
2386;SDS011;49473;50.772;8.768;2022-12-18T02:26:43;25.43;;;14.57;;
2386;SDS011;49473;50.772;8.768;2022-12-18T02:29:13;25.10;;;12.43;;
2386;SDS011;49473;50.772;8.768;2022-12-18T02:31:43;21.63;;;11.70;;
2386;SDS011;49473;50.772;8.768;2022-12-18T02:34:12;24.43;;;11.87;;
2386;SDS011;49473;50.772;8.768;2022-12-18T02:36:39;25.13;;;11.67;;
2386;SDS011;49473;50.772;8.768;2022-12-18T02:39:09;18.03;;;10.17;;
2386;SDS011;49473;50.772;8.768;2022-12-18T02:41:38;16.97;;;10.87;;
2386;SDS011;49473;50.772;8.768;2022-12-18T02:44:08;26.37;;;12.40;;
2386;SDS011;49473;50.772;8.768;2022-12-18T02:46:37;22.47;;;12.20;;
2386;SDS011;49473;50.772;8.768;2022-12-18T02:49:08;20.57;;;12.63;;
2386;SDS011;49473;50.772;8.768;2022-12-18T02:51:47;19.30;;;12.90;;
2386;SDS011;49473;50.772;8.768;2022-12-18T02:54:21;17.70;;;11.20;;
2386;SDS011;49473;50.772;8.768;2022-12-18T02:57:00;17.77;;;10.87;;
2386;SDS011;49473;50.772;8.768;2022-12-18T02:59:37;17.10;;;11.73;;
2386;SDS011;49473;50.772;8.768;2022-12-18T03:02:10;21.73;;;12.20;;
2386;SDS011;49473;50.772;8.768;2022-12-18T03:04:47;18.80;;;11.10;;
2386;SDS011;49473;50.772;8.768;2022-12-18T03:07:16;20.87;;;12.10;;
2386;SDS011;49473;50.772;8.768;2022-12-18T03:09:46;16.63;;;10.97;;
2386;SDS011;49473;50.772;8.768;2022-12-18T03:12:16;19.70;;;12.53;;
2386;SDS011;49473;50.772;8.768;2022-12-18T03:14:53;19.00;;;11.17;;
2386;SDS011;49473;50.772;8.768;2022-12-18T03:17:22;16.80;;;10.13;;
2386;SDS011;49473;50.772;8.768;2022-12-18T03:19:49;20.33;;;12.33;;
2386;SDS011;49473;50.772;8.768;2022-12-18T03:22:19;17.80;;;10.67;;
2386;SDS011;49473;50.772;8.768;2022-12-18T03:24:47;21.33;;;10.93;;
2386;SDS011;49473;50.772;8.768;2022-12-18T03:27:16;19.27;;;10.40;;
2386;SDS011;49473;50.772;8.768;2022-12-18T03:29:46;19.53;;;11.50;;
2386;SDS011;49473;50.772;8.768;2022-12-18T03:32:19;20.43;;;11.17;;
2386;SDS011;49473;50.772;8.768;2022-12-18T03:34:51;19.43;;;12.93;;
2386;SDS011;49473;50.772;8.768;2022-12-18T03:37:21;18.60;;;11.57;;
2386;SDS011;49473;50.772;8.768;2022-12-18T03:39:48;21.20;;;11.20;;
2386;SDS011;49473;50.772;8.768;2022-12-18T03:42:16;25.70;;;12.17;;
2386;SDS011;49473;50.772;8.768;2022-12-18T03:44:46;17.67;;;11.83;;
2386;SDS011;49473;50.772;8.768;2022-12-18T03:47:19;16.27;;;10.50;;
2386;SDS011;49473;50.772;8.768;2022-12-18T03:49:53;21.57;;;11.97;;
2386;SDS011;49473;50.772;8.768;2022-12-18T03:52:24;17.10;;;10.87;;
2386;SDS011;49473;50.772;8.768;2022-12-18T03:54:54;22.73;;;12.10;;
2386;SDS011;49473;50.772;8.768;2022-12-18T03:57:24;18.17;;;10.23;;
2386;SDS011;49473;50.772;8.768;2022-12-18T03:59:54;20.37;;;10.00;;
2386;SDS011;49473;50.772;8.768;2022-12-18T04:02:24;17.00;;;10.70;;
2386;SDS011;49473;50.772;8.768;2022-12-18T04:04:51;20.43;;;12.27;;
2386;SDS011;49473;50.772;8.768;2022-12-18T04:07:21;21.73;;;12.00;;
2386;SDS011;49473;50.772;8.768;2022-12-18T04:09:49;16.43;;;9.57;;
2386;SDS011;49473;50.772;8.768;2022-12-18T04:12:18;30.40;;;13.07;;
2386;SDS011;49473;50.772;8.768;2022-12-18T04:14:46;15.00;;;10.00;;
2386;SDS011;49473;50.772;8.768;2022-12-18T04:17:13;16.10;;;9.87;;
2386;SDS011;49473;50.772;8.768;2022-12-18T04:19:41;20.57;;;10.70;;
2386;SDS011;49473;50.772;8.768;2022-12-18T04:22:08;19.50;;;11.33;;
2386;SDS011;49473;50.772;8.768;2022-12-18T04:24:36;16.97;;;10.27;;
2386;SDS011;49473;50.772;8.768;2022-12-18T04:27:03;15.83;;;9.97;;
2386;SDS011;49473;50.772;8.768;2022-12-18T04:29:30;21.23;;;11.10;;
2386;SDS011;49473;50.772;8.768;2022-12-18T04:31:56;20.90;;;11.90;;
2386;SDS011;49473;50.772;8.768;2022-12-18T04:34:23;16.23;;;10.80;;
2386;SDS011;49473;50.772;8.768;2022-12-18T04:36:51;20.63;;;11.60;;
2386;SDS011;49473;50.772;8.768;2022-12-18T04:39:18;15.30;;;10.10;;
2386;SDS011;49473;50.772;8.768;2022-12-18T04:41:46;16.73;;;10.77;;
2386;SDS011;49473;50.772;8.768;2022-12-18T04:44:13;21.83;;;11.97;;
2386;SDS011;49473;50.772;8.768;2022-12-18T04:46:39;15.10;;;10.23;;
2386;SDS011;49473;50.772;8.768;2022-12-18T04:49:06;21.17;;;11.43;;
2386;SDS011;49473;50.772;8.768;2022-12-18T04:51:35;18.53;;;10.97;;
2386;SDS011;49473;50.772;8.768;2022-12-18T04:54:03;17.30;;;10.10;;
2386;SDS011;49473;50.772;8.768;2022-12-18T04:56:30;15.70;;;11.00;;
2386;SDS011;49473;50.772;8.768;2022-12-18T04:58:58;13.00;;;9.30;;
2386;SDS011;49473;50.772;8.768;2022-12-18T05:01:25;17.27;;;10.10;;
2386;SDS011;49473;50.772;8.768;2022-12-18T05:03:51;16.13;;;10.03;;
2386;SDS011;49473;50.772;8.768;2022-12-18T05:06:18;17.77;;;10.43;;
2386;SDS011;49473;50.772;8.768;2022-12-18T05:08:45;16.10;;;10.10;;
2386;SDS011;49473;50.772;8.768;2022-12-18T05:11:14;14.77;;;9.13;;
2386;SDS011;49473;50.772;8.768;2022-12-18T05:13:41;14.77;;;9.63;;
2386;SDS011;49473;50.772;8.768;2022-12-18T05:16:09;16.33;;;9.87;;
2386;SDS011;49473;50.772;8.768;2022-12-18T05:18:36;12.60;;;9.80;;
2386;SDS011;49473;50.772;8.768;2022-12-18T05:21:03;14.90;;;10.37;;
2386;SDS011;49473;50.772;8.768;2022-12-18T05:23:30;14.10;;;8.70;;
2386;SDS011;49473;50.772;8.768;2022-12-18T05:26:01;16.30;;;10.30;;
2386;SDS011;49473;50.772;8.768;2022-12-18T05:28:30;17.90;;;10.37;;
2386;SDS011;49473;50.772;8.768;2022-12-18T05:31:00;17.77;;;10.63;;
2386;SDS011;49473;50.772;8.768;2022-12-18T05:33:28;16.27;;;9.63;;
2386;SDS011;49473;50.772;8.768;2022-12-18T05:35:57;12.77;;;10.13;;
2386;SDS011;49473;50.772;8.768;2022-12-18T05:38:25;14.57;;;11.00;;
2386;SDS011;49473;50.772;8.768;2022-12-18T05:40:53;14.57;;;9.03;;
2386;SDS011;49473;50.772;8.768;2022-12-18T05:43:21;16.90;;;8.83;;
2386;SDS011;49473;50.772;8.768;2022-12-18T05:45:50;18.50;;;10.33;;
2386;SDS011;49473;50.772;8.768;2022-12-18T05:48:17;15.57;;;9.03;;
2386;SDS011;49473;50.772;8.768;2022-12-18T05:50:45;15.90;;;9.90;;
2386;SDS011;49473;50.772;8.768;2022-12-18T05:53:13;14.30;;;8.80;;
2386;SDS011;49473;50.772;8.768;2022-12-18T05:55:42;14.63;;;10.47;;
2386;SDS011;49473;50.772;8.768;2022-12-18T05:58:10;14.37;;;8.93;;
2386;SDS011;49473;50.772;8.768;2022-12-18T06:00:38;13.13;;;9.33;;
2386;SDS011;49473;50.772;8.768;2022-12-18T06:03:07;17.47;;;9.80;;
2386;SDS011;49473;50.772;8.768;2022-12-18T06:05:34;16.70;;;11.00;;
2386;SDS011;49473;50.772;8.768;2022-12-18T06:08:02;16.07;;;8.93;;
2386;SDS011;49473;50.772;8.768;2022-12-18T06:10:29;12.43;;;8.90;;
2386;SDS011;49473;50.772;8.768;2022-12-18T06:12:56;13.97;;;9.10;;
2386;SDS011;49473;50.772;8.768;2022-12-18T06:15:23;17.97;;;10.00;;
2386;SDS011;49473;50.772;8.768;2022-12-18T06:17:50;14.07;;;9.07;;
2386;SDS011;49473;50.772;8.768;2022-12-18T06:20:19;18.97;;;9.83;;
2386;SDS011;49473;50.772;8.768;2022-12-18T06:22:46;14.90;;;9.10;;
2386;SDS011;49473;50.772;8.768;2022-12-18T06:25:13;12.40;;;9.40;;
2386;SDS011;49473;50.772;8.768;2022-12-18T06:27:40;15.43;;;9.53;;
2386;SDS011;49473;50.772;8.768;2022-12-18T06:30:08;14.10;;;9.17;;
2386;SDS011;49473;50.772;8.768;2022-12-18T06:32:35;15.17;;;8.63;;
2386;SDS011;49473;50.772;8.768;2022-12-18T06:35:03;12.77;;;9.87;;
2386;SDS011;49473;50.772;8.768;2022-12-18T06:37:31;13.77;;;8.83;;
2386;SDS011;49473;50.772;8.768;2022-12-18T06:39:58;12.47;;;8.83;;
2386;SDS011;49473;50.772;8.768;2022-12-18T06:42:26;16.20;;;10.47;;
2386;SDS011;49473;50.772;8.768;2022-12-18T06:44:53;16.20;;;8.43;;
2386;SDS011;49473;50.772;8.768;2022-12-18T06:47:20;13.87;;;9.60;;
2386;SDS011;49473;50.772;8.768;2022-12-18T06:49:47;20.60;;;10.43;;
2386;SDS011;49473;50.772;8.768;2022-12-18T06:52:14;12.93;;;9.67;;
2386;SDS011;49473;50.772;8.768;2022-12-18T06:54:42;16.80;;;9.07;;
2386;SDS011;49473;50.772;8.768;2022-12-18T06:57:09;20.73;;;12.60;;
2386;SDS011;49473;50.772;8.768;2022-12-18T06:59:36;14.53;;;10.30;;
2386;SDS011;49473;50.772;8.768;2022-12-18T07:02:03;16.87;;;10.07;;
2386;SDS011;49473;50.772;8.768;2022-12-18T07:04:31;18.23;;;10.57;;
2386;SDS011;49473;50.772;8.768;2022-12-18T07:06:58;15.33;;;9.53;;
2386;SDS011;49473;50.772;8.768;2022-12-18T07:09:25;16.83;;;9.80;;
2386;SDS011;49473;50.772;8.768;2022-12-18T07:11:54;13.37;;;8.83;;
2386;SDS011;49473;50.772;8.768;2022-12-18T07:14:21;14.77;;;9.37;;
2386;SDS011;49473;50.772;8.768;2022-12-18T07:16:48;14.70;;;9.17;;
2386;SDS011;49473;50.772;8.768;2022-12-18T07:19:15;16.10;;;9.07;;
2386;SDS011;49473;50.772;8.768;2022-12-18T07:21:42;14.90;;;9.00;;
2386;SDS011;49473;50.772;8.768;2022-12-18T07:24:09;18.23;;;10.43;;
2386;SDS011;49473;50.772;8.768;2022-12-18T07:26:36;15.03;;;9.93;;
2386;SDS011;49473;50.772;8.768;2022-12-18T07:29:04;12.07;;;9.10;;
2386;SDS011;49473;50.772;8.768;2022-12-18T07:31:31;12.43;;;8.60;;
2386;SDS011;49473;50.772;8.768;2022-12-18T07:33:58;9.40;;;7.80;;
2386;SDS011;49473;50.772;8.768;2022-12-18T07:36:26;13.63;;;9.37;;
2386;SDS011;49473;50.772;8.768;2022-12-18T07:38:53;15.57;;;9.70;;
2386;SDS011;49473;50.772;8.768;2022-12-18T07:41:21;15.03;;;9.60;;
2386;SDS011;49473;50.772;8.768;2022-12-18T07:43:48;13.17;;;8.47;;
2386;SDS011;49473;50.772;8.768;2022-12-18T07:46:17;14.33;;;9.50;;
2386;SDS011;49473;50.772;8.768;2022-12-18T07:48:44;16.47;;;9.30;;
2386;SDS011;49473;50.772;8.768;2022-12-18T07:51:11;19.67;;;13.03;;
2386;SDS011;49473;50.772;8.768;2022-12-18T07:53:38;21.33;;;13.80;;
2386;SDS011;49473;50.772;8.768;2022-12-18T07:56:07;17.67;;;10.43;;
2386;SDS011;49473;50.772;8.768;2022-12-18T07:58:34;15.80;;;10.57;;
2386;SDS011;49473;50.772;8.768;2022-12-18T08:01:02;18.27;;;10.87;;
2386;SDS011;49473;50.772;8.768;2022-12-18T08:03:31;22.60;;;12.20;;
2386;SDS011;49473;50.772;8.768;2022-12-18T08:05:59;22.80;;;14.90;;
2386;SDS011;49473;50.772;8.768;2022-12-18T08:08:26;17.07;;;9.80;;
2386;SDS011;49473;50.772;8.768;2022-12-18T08:10:53;23.33;;;13.57;;
2386;SDS011;49473;50.772;8.768;2022-12-18T08:13:21;19.30;;;13.37;;
2386;SDS011;49473;50.772;8.768;2022-12-18T08:15:54;20.93;;;12.17;;
2386;SDS011;49473;50.772;8.768;2022-12-18T08:18:22;15.87;;;10.40;;
2386;SDS011;49473;50.772;8.768;2022-12-18T08:20:50;12.03;;;9.27;;
2386;SDS011;49473;50.772;8.768;2022-12-18T08:23:17;11.73;;;8.73;;
2386;SDS011;49473;50.772;8.768;2022-12-18T08:25:44;15.23;;;9.80;;
2386;SDS011;49473;50.772;8.768;2022-12-18T08:28:11;14.23;;;9.60;;
2386;SDS011;49473;50.772;8.768;2022-12-18T08:30:38;15.27;;;9.30;;
2386;SDS011;49473;50.772;8.768;2022-12-18T08:33:06;13.07;;;9.10;;
2386;SDS011;49473;50.772;8.768;2022-12-18T08:35:34;18.17;;;10.00;;
2386;SDS011;49473;50.772;8.768;2022-12-18T08:38:03;9.60;;;7.70;;
2386;SDS011;49473;50.772;8.768;2022-12-18T08:40:31;13.70;;;8.50;;
2386;SDS011;49473;50.772;8.768;2022-12-18T08:42:58;17.77;;;10.33;;
2386;SDS011;49473;50.772;8.768;2022-12-18T08:45:42;16.90;;;9.97;;
2386;SDS011;49473;50.772;8.768;2022-12-18T08:48:09;11.37;;;7.63;;
2386;SDS011;49473;50.772;8.768;2022-12-18T08:50:36;9.60;;;7.93;;
2386;SDS011;49473;50.772;8.768;2022-12-18T08:53:05;12.67;;;8.60;;
2386;SDS011;49473;50.772;8.768;2022-12-18T08:55:32;14.60;;;9.60;;
2386;SDS011;49473;50.772;8.768;2022-12-18T08:57:59;14.50;;;10.30;;
2386;SDS011;49473;50.772;8.768;2022-12-18T09:00:27;16.37;;;10.87;;
2386;SDS011;49473;50.772;8.768;2022-12-18T09:02:54;18.20;;;12.80;;
2386;SDS011;49473;50.772;8.768;2022-12-18T09:05:21;30.00;;;18.00;;
2386;SDS011;49473;50.772;8.768;2022-12-18T09:07:48;16.67;;;11.00;;
2386;SDS011;49473;50.772;8.768;2022-12-18T09:10:16;17.67;;;11.37;;
2386;SDS011;49473;50.772;8.768;2022-12-18T09:12:43;34.90;;;18.53;;
2386;SDS011;49473;50.772;8.768;2022-12-18T09:15:10;22.40;;;13.30;;
2386;SDS011;49473;50.772;8.768;2022-12-18T09:17:37;28.00;;;15.40;;
2386;SDS011;49473;50.772;8.768;2022-12-18T09:20:05;90.43;;;35.37;;
2386;SDS011;49473;50.772;8.768;2022-12-18T09:22:32;29.00;;;17.03;;
2386;SDS011;49473;50.772;8.768;2022-12-18T09:24:59;27.57;;;15.20;;
2386;SDS011;49473;50.772;8.768;2022-12-18T09:27:28;16.90;;;13.50;;
2386;SDS011;49473;50.772;8.768;2022-12-18T09:29:55;19.70;;;12.43;;
2386;SDS011;49473;50.772;8.768;2022-12-18T09:32:22;18.17;;;13.10;;
2386;SDS011;49473;50.772;8.768;2022-12-18T09:34:49;19.03;;;15.17;;
2386;SDS011;49473;50.772;8.768;2022-12-18T09:37:16;19.47;;;14.20;;
2386;SDS011;49473;50.772;8.768;2022-12-18T09:39:43;17.17;;;11.70;;
2386;SDS011;49473;50.772;8.768;2022-12-18T09:42:11;18.70;;;13.13;;
2386;SDS011;49473;50.772;8.768;2022-12-18T09:44:41;21.70;;;14.10;;
2386;SDS011;49473;50.772;8.768;2022-12-18T09:47:12;19.70;;;14.07;;
2386;SDS011;49473;50.772;8.768;2022-12-18T09:49:41;21.20;;;15.30;;
2386;SDS011;49473;50.772;8.768;2022-12-18T09:52:11;22.83;;;16.63;;
2386;SDS011;49473;50.772;8.768;2022-12-18T09:54:39;21.80;;;16.40;;
2386;SDS011;49473;50.772;8.768;2022-12-18T09:57:10;23.57;;;17.17;;
2386;SDS011;49473;50.772;8.768;2022-12-18T09:59:38;28.10;;;17.83;;
2386;SDS011;49473;50.772;8.768;2022-12-18T10:02:14;20.40;;;15.70;;
2386;SDS011;49473;50.772;8.768;2022-12-18T10:04:42;37.53;;;20.50;;
2386;SDS011;49473;50.772;8.768;2022-12-18T10:07:10;22.73;;;16.57;;
2386;SDS011;49473;50.772;8.768;2022-12-18T10:09:42;20.73;;;15.70;;
2386;SDS011;49473;50.772;8.768;2022-12-18T10:12:13;22.97;;;16.40;;
2386;SDS011;49473;50.772;8.768;2022-12-18T10:14:43;21.10;;;14.43;;
2386;SDS011;49473;50.772;8.768;2022-12-18T10:17:18;20.00;;;14.70;;
2386;SDS011;49473;50.772;8.768;2022-12-18T10:19:49;21.10;;;13.30;;
2386;SDS011;49473;50.772;8.768;2022-12-18T10:22:26;20.73;;;15.10;;
2386;SDS011;49473;50.772;8.768;2022-12-18T10:24:58;18.67;;;13.97;;
2386;SDS011;49473;50.772;8.768;2022-12-18T10:27:29;19.33;;;15.93;;
2386;SDS011;49473;50.772;8.768;2022-12-18T10:29:57;20.07;;;14.50;;
2386;SDS011;49473;50.772;8.768;2022-12-18T10:32:27;22.60;;;13.70;;
2386;SDS011;49473;50.772;8.768;2022-12-18T10:34:55;19.97;;;15.13;;
2386;SDS011;49473;50.772;8.768;2022-12-18T10:37:24;20.13;;;14.40;;
2386;SDS011;49473;50.772;8.768;2022-12-18T10:40:04;20.40;;;14.03;;
2386;SDS011;49473;50.772;8.768;2022-12-18T10:42:32;19.57;;;14.77;;
2386;SDS011;49473;50.772;8.768;2022-12-18T10:45:00;19.03;;;13.90;;
2386;SDS011;49473;50.772;8.768;2022-12-18T10:47:29;20.57;;;15.10;;
2386;SDS011;49473;50.772;8.768;2022-12-18T10:49:56;16.27;;;13.40;;
2386;SDS011;49473;50.772;8.768;2022-12-18T10:52:24;17.97;;;15.27;;
2386;SDS011;49473;50.772;8.768;2022-12-18T10:54:52;19.50;;;14.70;;
2386;SDS011;49473;50.772;8.768;2022-12-18T10:57:33;17.20;;;13.67;;
2386;SDS011;49473;50.772;8.768;2022-12-18T11:00:18;16.20;;;13.00;;
2386;SDS011;49473;50.772;8.768;2022-12-18T11:02:48;13.57;;;12.17;;
2386;SDS011;49473;50.772;8.768;2022-12-18T11:05:23;17.17;;;12.53;;
2386;SDS011;49473;50.772;8.768;2022-12-18T11:07:50;13.90;;;11.37;;
2386;SDS011;49473;50.772;8.768;2022-12-18T11:10:19;14.60;;;12.13;;
2386;SDS011;49473;50.772;8.768;2022-12-18T11:12:46;16.73;;;12.43;;
2386;SDS011;49473;50.772;8.768;2022-12-18T11:15:15;19.20;;;13.30;;
2386;SDS011;49473;50.772;8.768;2022-12-18T11:17:43;20.10;;;14.50;;
2386;SDS011;49473;50.772;8.768;2022-12-18T11:20:20;14.00;;;11.63;;
2386;SDS011;49473;50.772;8.768;2022-12-18T11:22:54;13.20;;;11.77;;
2386;SDS011;49473;50.772;8.768;2022-12-18T11:25:22;16.17;;;13.30;;
2386;SDS011;49473;50.772;8.768;2022-12-18T11:27:50;18.40;;;13.13;;
2386;SDS011;49473;50.772;8.768;2022-12-18T11:30:21;18.17;;;12.87;;
2386;SDS011;49473;50.772;8.768;2022-12-18T11:32:48;18.27;;;14.53;;
2386;SDS011;49473;50.772;8.768;2022-12-18T11:35:17;18.67;;;13.50;;
2386;SDS011;49473;50.772;8.768;2022-12-18T11:37:47;16.27;;;13.90;;
2386;SDS011;49473;50.772;8.768;2022-12-18T11:40:16;18.27;;;14.87;;
2386;SDS011;49473;50.772;8.768;2022-12-18T11:42:45;18.07;;;15.70;;
2386;SDS011;49473;50.772;8.768;2022-12-18T11:45:22;16.50;;;14.77;;
2386;SDS011;49473;50.772;8.768;2022-12-18T11:47:52;19.20;;;15.03;;
2386;SDS011;49473;50.772;8.768;2022-12-18T11:50:24;18.50;;;15.73;;
2386;SDS011;49473;50.772;8.768;2022-12-18T11:52:53;17.80;;;15.90;;
2386;SDS011;49473;50.772;8.768;2022-12-18T11:55:22;18.43;;;14.77;;
2386;SDS011;49473;50.772;8.768;2022-12-18T11:57:55;17.67;;;15.80;;
2386;SDS011;49473;50.772;8.768;2022-12-18T12:00:24;17.90;;;16.00;;
2386;SDS011;49473;50.772;8.768;2022-12-18T12:03:12;19.27;;;17.27;;
2386;SDS011;49473;50.772;8.768;2022-12-18T12:05:44;20.20;;;15.77;;
2386;SDS011;49473;50.772;8.768;2022-12-18T12:08:26;20.00;;;16.50;;
2386;SDS011;49473;50.772;8.768;2022-12-18T12:11:05;17.63;;;15.07;;
2386;SDS011;49473;50.772;8.768;2022-12-18T12:13:38;16.80;;;15.17;;
2386;SDS011;49473;50.772;8.768;2022-12-18T12:16:15;20.33;;;16.07;;
2386;SDS011;49473;50.772;8.768;2022-12-18T12:18:50;17.17;;;15.27;;
2386;SDS011;49473;50.772;8.768;2022-12-18T12:21:24;20.30;;;17.33;;
2386;SDS011;49473;50.772;8.768;2022-12-18T12:23:57;20.30;;;17.80;;
2386;SDS011;49473;50.772;8.768;2022-12-18T12:26:30;19.90;;;17.87;;
2386;SDS011;49473;50.772;8.768;2022-12-18T12:29:01;20.33;;;18.23;;
2386;SDS011;49473;50.772;8.768;2022-12-18T12:31:33;21.37;;;18.43;;
2386;SDS011;49473;50.772;8.768;2022-12-18T12:34:07;20.10;;;17.97;;
2386;SDS011;49473;50.772;8.768;2022-12-18T12:36:45;18.73;;;16.77;;
2386;SDS011;49473;50.772;8.768;2022-12-18T12:39:26;25.30;;;17.50;;
2386;SDS011;49473;50.772;8.768;2022-12-18T12:41:54;69.70;;;63.33;;
2386;SDS011;49473;50.772;8.768;2022-12-18T12:44:40;23.73;;;18.23;;
2386;SDS011;49473;50.772;8.768;2022-12-18T12:47:11;19.93;;;15.50;;
2386;SDS011;49473;50.772;8.768;2022-12-18T12:49:40;21.27;;;16.97;;
2386;SDS011;49473;50.772;8.768;2022-12-18T12:52:13;18.97;;;16.07;;
2386;SDS011;49473;50.772;8.768;2022-12-18T12:54:43;16.77;;;14.97;;
2386;SDS011;49473;50.772;8.768;2022-12-18T12:57:11;21.50;;;16.20;;
2386;SDS011;49473;50.772;8.768;2022-12-18T12:59:40;19.00;;;15.27;;
2386;SDS011;49473;50.772;8.768;2022-12-18T13:02:14;25.33;;;16.67;;
2386;SDS011;49473;50.772;8.768;2022-12-18T13:04:44;22.07;;;15.20;;
2386;SDS011;49473;50.772;8.768;2022-12-18T13:07:17;17.57;;;15.07;;
2386;SDS011;49473;50.772;8.768;2022-12-18T13:12:33;18.70;;;15.70;;
2386;SDS011;49473;50.772;8.768;2022-12-18T13:15:20;19.43;;;16.27;;
2386;SDS011;49473;50.772;8.768;2022-12-18T13:17:48;21.97;;;16.30;;
2386;SDS011;49473;50.772;8.768;2022-12-18T13:20:15;24.03;;;16.87;;
2386;SDS011;49473;50.772;8.768;2022-12-18T13:22:43;24.60;;;17.60;;
2386;SDS011;49473;50.772;8.768;2022-12-18T13:25:30;21.47;;;15.77;;
2386;SDS011;49473;50.772;8.768;2022-12-18T13:28:09;21.63;;;16.37;;
2386;SDS011;49473;50.772;8.768;2022-12-18T13:30:50;23.67;;;15.47;;
2386;SDS011;49473;50.772;8.768;2022-12-18T13:36:08;17.70;;;14.80;;
2386;SDS011;49473;50.772;8.768;2022-12-18T13:38:37;18.93;;;15.37;;
2386;SDS011;49473;50.772;8.768;2022-12-18T13:41:10;21.13;;;16.13;;
2386;SDS011;49473;50.772;8.768;2022-12-18T13:43:49;21.90;;;15.90;;
2386;SDS011;49473;50.772;8.768;2022-12-18T13:46:21;20.47;;;16.93;;
2386;SDS011;49473;50.772;8.768;2022-12-18T13:48:50;20.03;;;15.63;;
2386;SDS011;49473;50.772;8.768;2022-12-18T13:51:18;19.73;;;17.07;;
2386;SDS011;49473;50.772;8.768;2022-12-18T13:53:47;20.90;;;17.30;;
2386;SDS011;49473;50.772;8.768;2022-12-18T13:56:15;21.23;;;17.13;;
2386;SDS011;49473;50.772;8.768;2022-12-18T13:58:42;21.83;;;17.70;;
2386;SDS011;49473;50.772;8.768;2022-12-18T14:01:17;19.10;;;16.57;;
2386;SDS011;49473;50.772;8.768;2022-12-18T14:03:48;27.47;;;20.10;;
2386;SDS011;49473;50.772;8.768;2022-12-18T14:06:15;21.30;;;18.43;;
2386;SDS011;49473;50.772;8.768;2022-12-18T14:08:43;26.00;;;18.47;;
2386;SDS011;49473;50.772;8.768;2022-12-18T14:11:20;33.40;;;21.97;;
2386;SDS011;49473;50.772;8.768;2022-12-18T14:13:48;25.90;;;19.90;;
2386;SDS011;49473;50.772;8.768;2022-12-18T14:16:17;27.27;;;19.77;;
2386;SDS011;49473;50.772;8.768;2022-12-18T14:18:45;27.07;;;19.90;;
2386;SDS011;49473;50.772;8.768;2022-12-18T14:24:03;26.27;;;20.10;;
2386;SDS011;49473;50.772;8.768;2022-12-18T14:26:31;27.20;;;20.40;;
2386;SDS011;49473;50.772;8.768;2022-12-18T14:28:59;26.87;;;20.70;;
2386;SDS011;49473;50.772;8.768;2022-12-18T14:31:29;30.80;;;22.53;;
2386;SDS011;49473;50.772;8.768;2022-12-18T14:33:56;31.50;;;21.47;;
2386;SDS011;49473;50.772;8.768;2022-12-18T14:36:24;35.43;;;21.73;;
2386;SDS011;49473;50.772;8.768;2022-12-18T14:38:53;29.60;;;19.60;;
2386;SDS011;49473;50.772;8.768;2022-12-18T14:41:21;31.20;;;20.30;;
2386;SDS011;49473;50.772;8.768;2022-12-18T14:43:49;31.23;;;20.13;;
2386;SDS011;49473;50.772;8.768;2022-12-18T14:46:32;29.57;;;20.80;;
2386;SDS011;49473;50.772;8.768;2022-12-18T14:49:01;55.57;;;29.43;;
2386;SDS011;49473;50.772;8.768;2022-12-18T14:51:29;42.33;;;26.20;;
2386;SDS011;49473;50.772;8.768;2022-12-18T14:53:57;32.23;;;22.07;;
2386;SDS011;49473;50.772;8.768;2022-12-18T14:56:26;31.03;;;21.93;;
2386;SDS011;49473;50.772;8.768;2022-12-18T14:58:54;31.17;;;22.37;;
2386;SDS011;49473;50.772;8.768;2022-12-18T15:01:23;35.63;;;22.70;;